createdAt,value
2022-12-13T00:01:48.903Z,-0.32
2022-12-13T00:04:17.414Z,0.27
2022-12-13T00:06:45.658Z,-0.47
2022-12-13T00:09:15.096Z,-0.46
2022-12-13T00:11:43.649Z,-0.85
2022-12-13T00:14:14.347Z,-0.75
2022-12-13T00:16:45.709Z,-0.96
2022-12-13T00:19:16.272Z,-0.58
2022-12-13T00:21:44.500Z,-1.09
2022-12-13T00:24:13.239Z,-1.00
2022-12-13T00:26:41.410Z,-1.04
2022-12-13T00:29:10.304Z,-0.87
2022-12-13T00:32:00.146Z,-0.87
2022-12-13T00:34:28.774Z,-0.55
2022-12-13T00:36:59.266Z,-1.05
2022-12-13T00:39:28.268Z,-1.00
2022-12-13T00:41:56.414Z,-0.96
2022-12-13T00:44:24.948Z,-0.92
2022-12-13T00:46:53.299Z,-0.96
2022-12-13T00:49:21.909Z,-0.93
2022-12-13T00:51:51.465Z,-0.65
2022-12-13T00:54:20.006Z,-1.07
2022-12-13T00:56:48.202Z,-1.01
2022-12-13T00:59:16.854Z,-0.93
2022-12-13T01:01:45.340Z,-0.93
2022-12-13T01:04:14.232Z,-0.78
2022-12-13T01:06:44.102Z,-0.50
2022-12-13T01:09:18.448Z,-0.40
2022-12-13T01:11:47.772Z,-0.57
2022-12-13T01:14:16.758Z,-0.73
2022-12-13T01:16:45.045Z,-0.81
2022-12-13T01:19:13.677Z,-0.79
2022-12-13T01:21:41.860Z,-0.87
2022-12-13T01:24:10.432Z,-0.83
2022-12-13T01:26:40.172Z,-0.47
2022-12-13T01:29:09.447Z,-0.77
2022-12-13T01:31:41.602Z,-0.98
2022-12-13T01:34:11.474Z,-0.86
2022-12-13T01:36:40.486Z,-0.79
2022-12-13T01:39:15.332Z,-0.88
2022-12-13T01:41:46.275Z,-0.58
2022-12-13T01:44:51.923Z,-0.26
2022-12-13T01:47:24.225Z,-0.70
2022-12-13T01:49:53.675Z,-0.77
2022-12-13T01:52:22.080Z,-0.97
2022-12-13T01:54:52.275Z,-0.70
2022-12-13T01:57:23.706Z,-0.70
2022-12-13T01:59:52.881Z,-0.91
2022-12-13T02:02:21.373Z,-1.01
2022-12-13T02:04:54.263Z,-0.69
2022-12-13T02:07:25.486Z,-0.70
2022-12-13T02:09:56.582Z,-0.33
2022-12-13T02:12:29.442Z,-0.22
2022-12-13T02:15:00.475Z,-0.77
2022-12-13T02:17:44.781Z,-0.58
2022-12-13T02:20:37.357Z,-0.44
2022-12-13T02:23:22.533Z,-0.50
2022-12-13T02:26:08.681Z,-0.62
2022-12-13T02:28:50.240Z,-0.60
2022-12-13T02:31:24.021Z,-0.67
2022-12-13T02:33:54.095Z,-0.80
2022-12-13T02:36:29.490Z,-0.60
2022-12-13T02:39:09.491Z,-0.66
2022-12-13T02:41:40.577Z,-0.66
2022-12-13T02:44:12.949Z,-0.65
2022-12-13T02:46:54.680Z,-0.62
2022-12-13T02:49:25.491Z,-0.62
2022-12-13T02:51:54.237Z,-0.86
2022-12-13T02:54:22.519Z,-0.88
2022-12-13T02:56:57.355Z,-0.55
2022-12-13T02:59:29.319Z,-0.73
2022-12-13T03:02:09.612Z,-0.53
2022-12-13T03:05:07.687Z,-0.56
2022-12-13T03:07:40.160Z,-0.53
2022-12-13T03:10:11.203Z,-0.63
2022-12-13T03:13:00.772Z,-0.51
2022-12-13T03:15:34.535Z,-0.52
2022-12-13T03:18:15.617Z,-0.54
2022-12-13T03:20:47.045Z,-0.53
2022-12-13T03:23:15.793Z,-0.94
2022-12-13T03:25:44.133Z,-1.01
2022-12-13T03:28:13.255Z,-0.94
2022-12-13T03:30:41.447Z,-1.10
2022-12-13T03:33:11.318Z,-0.69
2022-12-13T03:35:44.892Z,-0.77
2022-12-13T03:38:21.788Z,-1.12
2022-12-13T03:40:53.871Z,-0.87
2022-12-13T03:43:23.140Z,-0.96
2022-12-13T03:45:52.136Z,-0.99
2022-12-13T03:48:23.709Z,-0.74
2022-12-13T03:50:53.234Z,-0.78
2022-12-13T03:53:33.498Z,-0.85
2022-12-13T03:56:04.175Z,-0.77
2022-12-13T03:58:34.981Z,-0.78
2022-12-13T04:01:07.144Z,-0.81
2022-12-13T04:03:37.143Z,-0.84
2022-12-13T04:06:05.896Z,-1.03
2022-12-13T04:08:34.848Z,-1.12
2022-12-13T04:11:24.885Z,-1.07
2022-12-13T04:13:53.090Z,-0.97
2022-12-13T04:16:21.798Z,-1.15
2022-12-13T04:18:51.779Z,-0.89
2022-12-13T04:21:20.086Z,-1.19
2022-12-13T04:23:48.500Z,-1.28
2022-12-13T04:26:16.739Z,-1.21
2022-12-13T04:28:49.388Z,-1.42
2022-12-13T04:31:21.147Z,-1.28
2022-12-13T04:33:51.260Z,-1.33
2022-12-13T04:36:32.139Z,-1.48
2022-12-13T04:39:02.401Z,-1.33
2022-12-13T04:41:34.639Z,-1.34
2022-12-13T04:44:03.833Z,-1.44
2022-12-13T04:46:31.974Z,-1.39
2022-12-13T04:49:02.177Z,-1.01
2022-12-13T04:51:30.584Z,-1.33
2022-12-13T04:54:23.190Z,-1.34
2022-12-13T04:56:47.323Z,-1.33
2022-12-13T04:59:16.224Z,-1.44
2022-12-13T05:01:44.503Z,-1.39
2022-12-13T05:04:14.567Z,-1.13
2022-12-13T05:06:43.043Z,-1.38
2022-12-13T05:09:11.745Z,-1.44
2022-12-13T05:11:45.648Z,-1.61
2022-12-13T05:14:14.459Z,-1.62
2022-12-13T05:16:51.922Z,-1.51
2022-12-13T05:19:21.815Z,-1.33
2022-12-13T05:22:01.657Z,-1.70
2022-12-13T05:24:32.328Z,-1.57
2022-12-13T05:27:01.018Z,-1.57
2022-12-13T05:29:29.490Z,-1.62
2022-12-13T05:31:57.842Z,-1.65
2022-12-13T05:34:27.901Z,-1.32
2022-12-13T05:36:56.233Z,-1.68
2022-12-13T05:39:28.013Z,-1.69
2022-12-13T05:42:01.403Z,-1.42
2022-12-13T05:44:32.196Z,-1.52
2022-12-13T05:47:02.035Z,-1.59
2022-12-13T05:49:32.645Z,-1.33
2022-12-13T05:52:01.075Z,-1.62
2022-12-13T05:54:29.756Z,-1.67
2022-12-13T05:56:57.981Z,-1.64
2022-12-13T05:59:26.519Z,-1.65
2022-12-13T06:01:55.117Z,-1.76
2022-12-13T06:04:23.793Z,-1.72
2022-12-13T06:06:53.609Z,-1.39
2022-12-13T06:09:22.866Z,-1.48
2022-12-13T06:11:51.356Z,-1.55
2022-12-13T06:14:22.214Z,-1.53
2022-12-13T06:16:52.771Z,-1.55
2022-12-13T06:19:22.040Z,-1.59
2022-12-13T06:21:50.427Z,-1.68
2022-12-13T06:24:21.697Z,-1.27
2022-12-13T06:26:50.368Z,-1.63
2022-12-13T06:29:22.527Z,-1.42
2022-12-13T06:32:01.981Z,-1.52
2022-12-13T06:34:33.591Z,-1.42
2022-12-13T06:37:02.084Z,-1.69
2022-12-13T06:39:32.827Z,-1.41
2022-12-13T06:42:02.389Z,-1.63
2022-12-13T06:44:31.047Z,-1.62
2022-12-13T06:47:12.219Z,-1.63
2022-12-13T06:49:43.651Z,-1.50
2022-12-13T06:52:13.837Z,-1.55
2022-12-13T06:54:44.605Z,-1.42
2022-12-13T06:57:13.951Z,-1.54
2022-12-13T06:59:42.901Z,-1.83
2022-12-13T07:02:24.655Z,-1.59
2022-12-13T07:04:55.330Z,-1.61
2022-12-13T07:07:24.667Z,-1.68
2022-12-13T07:09:54.765Z,-1.40
2022-12-13T07:12:23.186Z,-1.71
2022-12-13T07:14:51.811Z,-1.58
2022-12-13T07:17:32.495Z,-1.64
2022-12-13T07:20:08.138Z,-1.38
2022-12-13T07:22:44.805Z,-1.37
2022-12-13T07:25:26.924Z,-1.16
2022-12-13T07:28:01.479Z,-1.27
2022-12-13T07:30:32.468Z,-1.23
2022-12-13T07:33:02.025Z,-1.31
2022-12-13T07:35:30.908Z,-1.39
2022-12-13T07:38:05.755Z,-1.39
2022-12-13T07:40:36.463Z,-1.14
2022-12-13T07:43:05.245Z,-1.31
2022-12-13T07:45:34.001Z,-1.31
2022-12-13T07:48:05.514Z,-0.99
2022-12-13T07:50:36.822Z,-1.28
2022-12-13T07:53:07.062Z,-1.04
2022-12-13T07:55:37.747Z,-0.90
2022-12-13T07:58:07.225Z,-1.06
2022-12-13T08:00:35.902Z,-1.10
2022-12-13T08:03:04.093Z,-1.17
2022-12-13T08:05:39.032Z,-1.08
2022-12-13T08:08:09.056Z,-0.95
2022-12-13T08:10:39.261Z,-0.73
2022-12-13T08:13:07.563Z,-1.13
2022-12-13T08:15:36.057Z,-1.06
2022-12-13T08:18:05.203Z,-0.97
2022-12-13T08:20:33.907Z,-0.80
2022-12-13T08:23:03.083Z,-0.88
2022-12-13T08:25:32.303Z,-0.78
2022-12-13T08:28:02.728Z,-0.52
2022-12-13T08:30:33.492Z,-0.52
2022-12-13T08:33:04.772Z,-0.68
2022-12-13T08:35:35.278Z,-0.44
2022-12-13T08:38:04.605Z,-0.47
2022-12-13T08:40:33.339Z,-0.47
2022-12-13T08:43:03.071Z,0.17
2022-12-13T08:45:32.262Z,0.05
2022-12-13T08:48:00.931Z,0.30
2022-12-13T08:50:29.881Z,0.29
2022-12-13T08:52:58.361Z,0.42
2022-12-13T08:55:31.899Z,0.31
2022-12-13T08:58:08.623Z,0.78
2022-12-13T09:00:37.902Z,0.58
2022-12-13T09:03:10.357Z,0.43
2022-12-13T09:05:39.547Z,0.14
2022-12-13T09:08:24.770Z,-0.18
2022-12-13T09:11:01.135Z,-0.07
2022-12-13T09:13:43.486Z,-0.22
2022-12-13T09:16:23.409Z,-0.06
2022-12-13T09:18:54.781Z,-0.16
2022-12-13T09:21:31.410Z,-0.32
2022-12-13T09:24:01.881Z,-0.48
2022-12-13T09:26:37.705Z,-0.56
2022-12-13T09:29:11.418Z,-0.11
2022-12-13T09:31:41.142Z,-0.27
2022-12-13T09:34:10.302Z,-0.17
2022-12-13T09:36:38.886Z,-0.07
2022-12-13T09:39:07.152Z,0.05
2022-12-13T09:41:40.766Z,0.53
2022-12-13T09:44:30.934Z,0.74
2022-12-13T09:47:03.047Z,0.61
2022-12-13T09:49:35.943Z,0.59
2022-12-13T09:52:10.748Z,0.61
2022-12-13T09:54:48.320Z,0.54
2022-12-13T09:57:31.908Z,0.69
2022-12-13T10:00:05.226Z,0.85
2022-12-13T10:02:35.087Z,0.81
2022-12-13T10:05:22.296Z,1.09
2022-12-13T10:07:55.558Z,1.03
2022-12-13T10:10:24.100Z,0.65
2022-12-13T10:12:57.822Z,1.03
2022-12-13T10:15:28.596Z,0.97
2022-12-13T10:17:57.683Z,0.67
2022-12-13T10:20:29.453Z,0.96
2022-12-13T10:25:50.851Z,1.00
2022-12-13T10:28:21.989Z,0.76
2022-12-13T10:30:52.870Z,0.88
2022-12-13T10:33:25.504Z,0.73
2022-12-13T10:36:05.278Z,0.92
2022-12-13T10:38:37.102Z,0.65
2022-12-13T10:41:29.583Z,0.95
2022-12-13T10:44:19.228Z,0.80
2022-12-13T10:47:17.010Z,0.84
2022-12-13T10:49:52.041Z,0.60
2022-12-13T10:52:31.522Z,0.88
2022-12-13T10:55:13.585Z,0.29
2022-12-13T10:57:52.331Z,0.69
2022-12-13T11:00:33.406Z,0.52
2022-12-13T11:03:03.141Z,0.32
2022-12-13T11:05:33.681Z,0.19
2022-12-13T11:08:16.453Z,0.59
2022-12-13T11:10:48.233Z,0.08
2022-12-13T11:13:26.314Z,0.38
2022-12-13T11:15:56.965Z,0.10
2022-12-13T11:18:28.145Z,0.12
2022-12-13T11:20:58.981Z,0.25
2022-12-13T11:23:30.882Z,0.29
2022-12-13T11:26:01.035Z,0.27
2022-12-13T11:28:54.825Z,0.72
2022-12-13T11:31:29.691Z,0.67
2022-12-13T11:34:05.356Z,0.84
2022-12-13T11:36:41.349Z,1.31
2022-12-13T11:39:20.440Z,1.79
2022-12-13T11:41:55.388Z,2.28
2022-12-13T11:44:29.595Z,2.35
2022-12-13T11:46:59.776Z,2.28
2022-12-13T11:49:39.508Z,3.19
2022-12-13T11:52:15.072Z,3.39
2022-12-13T11:54:51.925Z,3.01
2022-12-13T11:57:32.626Z,2.56
2022-12-13T12:00:13.058Z,2.26
2022-12-13T12:02:52.171Z,1.96
2022-12-13T12:05:29.435Z,1.89
2022-12-13T12:10:58.607Z,1.61
2022-12-13T12:13:33.531Z,1.26
2022-12-13T12:16:09.959Z,1.39
2022-12-13T12:18:38.623Z,0.87
2022-12-13T12:21:21.566Z,1.08
2022-12-13T12:24:00.949Z,0.95
2022-12-13T12:26:35.436Z,0.80
2022-12-13T12:29:19.554Z,0.81
2022-12-13T12:31:52.665Z,0.67
2022-12-13T12:34:28.107Z,0.69
2022-12-13T12:37:08.062Z,0.74
2022-12-13T12:39:46.018Z,0.63
2022-12-13T12:43:13.368Z,0.79
2022-12-13T12:45:58.082Z,0.61
2022-12-13T12:49:00.374Z,0.63
2022-12-13T12:51:35.237Z,0.45
2022-12-13T12:54:16.063Z,0.51
2022-12-13T12:56:52.400Z,0.34
2022-12-13T12:59:26.127Z,0.32
2022-12-13T13:02:00.587Z,0.30
2022-12-13T13:04:33.176Z,0.21
2022-12-13T13:07:22.519Z,0.22
2022-12-13T13:09:54.720Z,0.12
2022-12-13T13:12:28.847Z,-0.00
2022-12-13T13:14:58.159Z,-0.08
2022-12-13T13:17:53.771Z,0.60
2022-12-13T13:20:24.498Z,0.20
2022-12-13T13:23:10.452Z,0.04
2022-12-13T13:26:07.761Z,0.18
2022-12-13T13:28:33.461Z,-0.42
2022-12-13T13:31:04.256Z,-0.03
2022-12-13T13:33:45.426Z,0.20
2022-12-13T13:36:47.397Z,0.23
2022-12-13T13:39:19.696Z,-0.02
2022-12-13T13:41:58.297Z,0.14
2022-12-13T13:45:11.732Z,0.37
2022-12-13T13:47:42.752Z,0.06
2022-12-13T13:50:39.414Z,0.55
2022-12-13T13:53:38.685Z,0.27
2022-12-13T13:56:12.781Z,0.46
2022-12-13T13:59:19.372Z,0.29
2022-12-13T14:02:13.494Z,0.14
2022-12-13T14:05:07.592Z,0.11
2022-12-13T14:08:24.335Z,0.03
2022-12-13T14:11:09.884Z,-0.21
2022-12-13T14:14:21.564Z,-0.11
2022-12-13T14:17:41.742Z,0.07
2022-12-13T14:20:46.061Z,-0.04
2022-12-13T14:23:27.121Z,-0.32
2022-12-13T14:26:08.862Z,-0.20
2022-12-13T14:28:46.719Z,-0.21
2022-12-13T14:31:22.219Z,-0.39
2022-12-13T14:33:53.138Z,-0.62
2022-12-13T14:36:28.435Z,-0.56
2022-12-13T14:39:03.460Z,-0.43
2022-12-13T14:41:31.957Z,-0.95
2022-12-13T14:44:15.533Z,-0.40
2022-12-13T14:46:56.274Z,-0.49
2022-12-13T14:49:26.564Z,-0.93
2022-12-13T14:52:01.643Z,-0.99
2022-12-13T14:54:33.596Z,-1.06
2022-12-13T14:57:07.923Z,-1.07
2022-12-13T14:59:36.442Z,-1.69
2022-12-13T15:02:06.718Z,-1.48
2022-12-13T15:04:38.754Z,-1.56
2022-12-13T15:07:10.779Z,-1.42
2022-12-13T15:09:39.428Z,-1.03
2022-12-13T15:12:15.300Z,-1.48
2022-12-13T15:14:57.763Z,-1.40
2022-12-13T15:17:30.839Z,-1.42
2022-12-13T15:19:59.323Z,-1.82
2022-12-13T15:22:29.927Z,-1.82
2022-12-13T15:24:58.642Z,-1.68
2022-12-13T15:27:27.145Z,-1.78
2022-12-13T15:29:56.228Z,-1.69
2022-12-13T15:32:24.326Z,-1.87
2022-12-13T15:34:54.714Z,-1.56
2022-12-13T15:37:29.771Z,-1.58
2022-12-13T15:40:01.993Z,-1.59
2022-12-13T15:42:33.081Z,-1.63
2022-12-13T15:45:02.050Z,-1.17
2022-12-13T15:47:30.583Z,-1.94
2022-12-13T15:50:01.748Z,-1.70
2022-12-13T15:52:35.645Z,-1.60
2022-12-13T15:55:28.627Z,-1.35
2022-12-13T15:57:59.604Z,-1.96
2022-12-13T16:00:32.079Z,-1.81
2022-12-13T16:03:08.853Z,-1.80
2022-12-13T16:05:47.868Z,-1.67
2022-12-13T16:08:26.541Z,-1.56
2022-12-13T16:10:55.644Z,-1.88
2022-12-13T16:13:27.184Z,-1.76
2022-12-13T16:15:59.975Z,-1.92
2022-12-13T16:18:44.956Z,-1.62
2022-12-13T16:21:15.447Z,-1.87
2022-12-13T16:23:48.610Z,-2.18
2022-12-13T16:26:23.415Z,-1.84
2022-12-13T16:28:51.878Z,-2.35
2022-12-13T16:31:22.854Z,-2.16
2022-12-13T16:33:51.192Z,-2.36
2022-12-13T16:36:21.563Z,-2.08
2022-12-13T16:38:49.855Z,-2.38
2022-12-13T16:41:18.594Z,-2.43
2022-12-13T16:43:53.764Z,-2.16
2022-12-13T16:47:17.243Z,-2.42
2022-12-13T16:49:19.055Z,-2.03
2022-12-13T16:51:49.517Z,-2.29
2022-12-13T16:54:19.481Z,-2.34
2022-12-13T16:56:48.164Z,-2.49
2022-12-13T16:59:18.540Z,-2.35
2022-12-13T17:01:47.182Z,-2.50
2022-12-13T17:04:20.668Z,-2.28
2022-12-13T17:06:54.498Z,-2.25
2022-12-13T17:09:24.916Z,-2.43
2022-12-13T17:11:53.430Z,-2.75
2022-12-13T17:14:21.627Z,-2.60
2022-12-13T17:16:50.176Z,-2.68
2022-12-13T17:19:18.557Z,-2.60
2022-12-13T17:21:47.517Z,-2.54
2022-12-13T17:24:17.261Z,-2.27
2022-12-13T17:26:53.830Z,-2.62
2022-12-13T17:29:23.921Z,-2.57
2022-12-13T17:31:52.733Z,-2.55
2022-12-13T17:34:21.502Z,-2.60
2022-12-13T17:36:52.156Z,-2.55
2022-12-13T17:39:23.079Z,-2.23
2022-12-13T17:41:55.077Z,-1.72
2022-12-13T17:44:25.627Z,-2.28
2022-12-13T17:46:55.981Z,-2.46
2022-12-13T17:49:24.869Z,-2.50
2022-12-13T17:51:54.494Z,-2.70
2022-12-13T17:54:26.049Z,-2.32
2022-12-13T17:56:55.073Z,-2.57
2022-12-13T17:59:23.563Z,-2.71
2022-12-13T18:01:52.481Z,-2.77
2022-12-13T18:04:20.978Z,-2.80
2022-12-13T18:06:50.633Z,-2.93
2022-12-13T18:09:19.287Z,-3.08
2022-12-13T18:11:49.169Z,-2.99
2022-12-13T18:14:17.505Z,-3.37
2022-12-13T18:16:46.877Z,-3.38
2022-12-13T18:19:16.798Z,-3.31
2022-12-13T18:21:45.478Z,-3.50
2022-12-13T18:24:13.694Z,-3.55
2022-12-13T18:26:42.230Z,-3.54
2022-12-13T18:29:11.809Z,-3.31
2022-12-13T18:31:41.198Z,-3.70
2022-12-13T18:34:10.109Z,-3.57
2022-12-13T18:36:39.647Z,-3.62
2022-12-13T18:39:08.033Z,-3.71
2022-12-13T18:41:36.699Z,-3.63
2022-12-13T18:44:06.744Z,-3.57
2022-12-13T18:46:38.353Z,-3.45
2022-12-13T18:49:07.340Z,-3.67
2022-12-13T18:51:36.131Z,-3.83
2022-12-13T18:54:04.578Z,-3.79
2022-12-13T18:56:33.197Z,-3.80
2022-12-13T18:59:01.339Z,-3.80
2022-12-13T19:01:30.682Z,-3.86
2022-12-13T19:04:00.456Z,-3.63
2022-12-13T19:06:29.465Z,-3.83
2022-12-13T19:08:59.143Z,-3.92
2022-12-13T19:11:29.019Z,-3.92
2022-12-13T19:13:57.375Z,-4.15
2022-12-13T19:16:26.937Z,-4.11
2022-12-13T19:18:55.693Z,-4.09
2022-12-13T19:21:27.494Z,-3.89
2022-12-13T19:23:57.925Z,-4.17
2022-12-13T19:26:27.823Z,-3.98
2022-12-13T19:28:57.382Z,-3.88
2022-12-13T19:31:31.139Z,-4.03
2022-12-13T19:34:01.543Z,-3.99
2022-12-13T19:36:32.252Z,-3.91
2022-12-13T19:39:00.615Z,-4.24
2022-12-13T19:41:29.790Z,-4.22
2022-12-13T19:43:58.306Z,-4.24
2022-12-13T19:46:27.512Z,-4.25
2022-12-13T19:48:59.665Z,-4.36
2022-12-13T19:51:39.603Z,-3.97
2022-12-13T19:54:08.429Z,-4.42
2022-12-13T19:56:37.006Z,-4.51
2022-12-13T19:59:05.722Z,-4.48
2022-12-13T20:01:34.461Z,-4.45
2022-12-13T20:04:03.054Z,-4.48
2022-12-13T20:06:33.155Z,-4.20
2022-12-13T20:09:01.644Z,-4.58
2022-12-13T20:11:31.451Z,-4.57
2022-12-13T20:13:59.773Z,-4.50
2022-12-13T20:16:28.533Z,-4.51
2022-12-13T20:18:58.664Z,-4.32
2022-12-13T20:21:28.289Z,-4.54
2022-12-13T20:23:58.791Z,-4.37
2022-12-13T20:26:29.467Z,-4.45
2022-12-13T20:28:58.085Z,-4.64
2022-12-13T20:31:28.772Z,-4.49
2022-12-13T20:33:57.580Z,-4.57
2022-12-13T20:36:27.963Z,-4.55
2022-12-13T20:38:59.694Z,-4.39
2022-12-13T20:41:29.970Z,-4.49
2022-12-13T20:43:59.786Z,-4.58
2022-12-13T20:46:29.222Z,-4.62
2022-12-13T20:48:58.913Z,-4.67
2022-12-13T20:51:28.930Z,-4.63
2022-12-13T20:53:58.919Z,-4.49
2022-12-13T20:56:29.342Z,-4.49
2022-12-13T20:58:57.773Z,-4.67
2022-12-13T21:01:27.550Z,-4.62
2022-12-13T21:03:56.444Z,-4.71
2022-12-13T21:06:25.156Z,-4.76
2022-12-13T21:08:54.171Z,-4.87
2022-12-13T21:11:25.655Z,-4.47
2022-12-13T21:14:05.318Z,-4.48
2022-12-13T21:16:37.382Z,-4.44
2022-12-13T21:19:06.685Z,-4.63
2022-12-13T21:21:35.450Z,-4.81
2022-12-13T21:24:04.377Z,-4.94
2022-12-13T21:26:36.701Z,-4.74
2022-12-13T21:29:10.743Z,-4.92
2022-12-13T21:31:43.083Z,-4.75
2022-12-13T21:34:12.926Z,-4.95
2022-12-13T21:36:43.131Z,-5.09
2022-12-13T21:39:14.019Z,-5.15
2022-12-13T21:41:43.748Z,-4.48
2022-12-13T21:44:12.945Z,-5.08
2022-12-13T21:47:10.745Z,-4.93
2022-12-13T21:49:30.078Z,-5.07
2022-12-13T21:51:58.553Z,-5.17
2022-12-13T21:54:26.818Z,-5.19
2022-12-13T21:57:13.931Z,-4.90
2022-12-13T21:59:42.088Z,-5.12
2022-12-13T22:02:14.860Z,-4.80
2022-12-13T22:04:45.110Z,-5.02
2022-12-13T22:07:15.386Z,-4.93
2022-12-13T22:09:43.651Z,-5.20
2022-12-13T22:12:20.187Z,-4.73
2022-12-13T22:14:48.790Z,-5.03
2022-12-13T22:17:17.924Z,-5.09
2022-12-13T22:19:48.342Z,-5.18
2022-12-13T22:22:18.810Z,-5.25
2022-12-13T22:24:53.171Z,-5.11
2022-12-13T22:27:25.739Z,-5.05
2022-12-13T22:29:57.039Z,-5.20
2022-12-13T22:32:27.150Z,-5.14
2022-12-13T22:34:55.554Z,-5.31
2022-12-13T22:37:24.904Z,-5.20
2022-12-13T22:39:53.226Z,-5.18
2022-12-13T22:42:23.262Z,-5.00
2022-12-13T22:44:51.542Z,-5.24
2022-12-13T22:47:20.027Z,-5.34
2022-12-13T22:49:48.658Z,-5.41
2022-12-13T22:52:18.002Z,-5.39
2022-12-13T22:54:46.174Z,-5.50
2022-12-13T22:57:14.651Z,-5.43
2022-12-13T22:59:44.823Z,-5.17
2022-12-13T23:02:13.447Z,-5.55
2022-12-13T23:04:41.826Z,-5.51
2022-12-13T23:07:10.875Z,-5.53
2022-12-13T23:09:39.153Z,-5.53
2022-12-13T23:12:25.417Z,-5.43
2022-12-13T23:14:55.055Z,-5.22
2022-12-13T23:17:23.605Z,-5.47
2022-12-13T23:19:53.508Z,-5.22
2022-12-13T23:22:30.144Z,-4.89
2022-12-13T23:24:58.255Z,-4.96
2022-12-13T23:27:26.966Z,-4.82
2022-12-13T23:29:59.368Z,-4.78
2022-12-13T23:32:33.642Z,-4.88
2022-12-13T23:35:09.888Z,-4.62
2022-12-13T23:37:38.804Z,-5.07
2022-12-13T23:40:08.421Z,-5.04
2022-12-13T23:42:36.896Z,-5.22
2022-12-13T23:45:07.947Z,-4.95
2022-12-13T23:47:36.499Z,-5.19
2022-12-13T23:50:04.801Z,-5.16
2022-12-13T23:52:33.254Z,-5.17
2022-12-13T23:55:01.600Z,-5.16
2022-12-13T23:57:30.128Z,-5.38
2022-12-13T23:59:58.266Z,-5.47
